Time;durP1;ratioP1;P1;durP2;ratioP2;P2;SDS_P1;SDS_P2;PMS_P1;PMS_P2;Temp;Humidity;BMP_temperature;BMP_pressure;BME280_temperature;BME280_humidity;BME280_pressure;Samples;Min_cycle;Max_cycle;Signal;HPM_P1;HPM_P2
2024/01/11 00:02:07;;;;;;;55.90;35.43;;;-3.60;99.90;;;;;;5117762;28;20418;-43
2024/01/11 00:04:33;;;;;;;57.80;37.20;;;-3.60;99.90;;;;;;5117151;28;20425;-43
2024/01/11 00:06:58;;;;;;;50.10;33.47;;;-3.70;99.90;;;;;;5117856;28;20437;-41
2024/01/11 00:09:24;;;;;;;49.27;33.27;;;-3.60;99.90;;;;;;5114093;28;20175;-43
2024/01/11 00:11:50;;;;;;;47.40;33.73;;;-3.70;99.90;;;;;;5115855;28;20175;-40
2024/01/11 00:14:15;;;;;;;52.43;34.70;;;-3.70;99.90;;;;;;5115562;28;20417;-41
2024/01/11 00:16:41;;;;;;;48.60;33.17;;;-3.70;99.90;;;;;;5117237;28;20180;-42
2024/01/11 00:19:07;;;;;;;50.93;34.30;;;-3.70;99.90;;;;;;5117098;28;20195;-43
2024/01/11 00:21:32;;;;;;;49.20;34.80;;;-3.70;99.90;;;;;;5116511;28;20465;-41
2024/01/11 00:23:58;;;;;;;55.83;35.07;;;-3.70;99.90;;;;;;5117052;28;20523;-40
2024/01/11 00:26:23;;;;;;;50.27;34.47;;;-3.80;99.90;;;;;;5116945;28;20179;-41
2024/01/11 00:28:49;;;;;;;48.57;31.47;;;-3.80;99.90;;;;;;5117695;28;20248;-40
2024/01/11 00:31:14;;;;;;;51.70;34.97;;;-3.80;99.90;;;;;;5116331;28;20196;-41
2024/01/11 00:33:40;;;;;;;53.60;35.97;;;-3.80;1.00;;;;;;5116993;28;20190;-40
2024/01/11 00:36:05;;;;;;;47.47;33.20;;;-3.80;1.00;;;;;;5117081;28;20393;-41
2024/01/11 00:38:31;;;;;;;51.27;35.47;;;-3.80;1.00;;;;;;5117819;28;20514;-40
2024/01/11 00:40:57;;;;;;;50.40;34.80;;;-3.80;1.00;;;;;;5116437;28;20211;-40
2024/01/11 00:43:22;;;;;;;51.37;33.23;;;-3.80;1.00;;;;;;5117615;28;20180;-41
2024/01/11 00:45:48;;;;;;;55.77;35.43;;;-3.80;1.00;;;;;;5116445;28;20580;-43
2024/01/11 00:48:13;;;;;;;50.20;30.60;;;-3.80;1.00;;;;;;5117192;28;20283;-51
2024/01/11 00:50:39;;;;;;;46.77;28.27;;;-3.80;99.90;;;;;;5116810;28;20256;-43
2024/01/11 00:53:04;;;;;;;63.50;38.80;;;-2.90;1.00;;;;;;5116230;28;20357;-45
2024/01/11 00:55:30;;;;;;;54.10;38.83;;;-2.50;1.00;;;;;;5116447;28;20252;-40
2024/01/11 00:57:55;;;;;;;55.60;36.47;;;-2.30;1.00;;;;;;5115738;28;20250;-42
2024/01/11 01:00:21;;;;;;;57.50;35.27;;;-2.70;99.90;;;;;;5116853;28;20284;-41
2024/01/11 01:02:47;;;;;;;48.00;35.00;;;-2.80;1.00;;;;;;5116864;28;20175;-43
2024/01/11 01:05:12;;;;;;;52.83;35.00;;;-3.00;99.90;;;;;;5117509;28;20175;-42
2024/01/11 01:07:38;;;;;;;55.30;33.83;;;-3.10;99.90;;;;;;5116072;28;20176;-41
2024/01/11 01:10:04;;;;;;;53.30;34.27;;;-3.20;1.00;;;;;;5115865;28;20192;-40
2024/01/11 01:12:29;;;;;;;53.27;34.07;;;-3.30;98.20;;;;;;5120273;28;20211;-44
2024/01/11 01:14:55;;;;;;;53.13;32.27;;;-3.40;1.00;;;;;;5119749;28;20286;-41
2024/01/11 01:17:22;;;;;;;52.03;33.10;;;-3.40;1.00;;;;;;5119620;28;20274;-42
2024/01/11 01:19:47;;;;;;;52.90;33.53;;;-3.60;1.00;;;;;;5116939;28;20477;-41
2024/01/11 01:22:13;;;;;;;49.90;32.47;;;-3.60;78.90;;;;;;5114980;28;20425;-40
2024/01/11 01:24:38;;;;;;;48.77;30.80;;;-3.70;99.90;;;;;;5117442;28;20179;-41
2024/01/11 01:27:04;;;;;;;51.93;34.43;;;-3.80;99.90;;;;;;5118616;28;20191;-41
2024/01/11 01:29:30;;;;;;;52.23;35.47;;;-3.80;99.90;;;;;;5119722;28;20546;-40
2024/01/11 01:31:55;;;;;;;51.07;33.87;;;-3.90;99.90;;;;;;5120069;28;20206;-41
2024/01/11 01:34:21;;;;;;;52.33;35.30;;;-3.90;99.90;;;;;;5119152;28;20282;-42
2024/01/11 01:36:46;;;;;;;54.97;35.67;;;-3.90;99.90;;;;;;5119036;28;20454;-43
2024/01/11 01:39:12;;;;;;;46.13;31.00;;;-4.00;99.90;;;;;;5119049;28;20250;-42
2024/01/11 01:41:38;;;;;;;47.33;31.20;;;-4.00;99.90;;;;;;5119519;28;20211;-42
2024/01/11 01:44:04;;;;;;;49.47;32.87;;;-4.10;23.60;;;;;;5119980;28;20429;-41
2024/01/11 01:46:29;;;;;;;48.23;31.47;;;-4.20;99.90;;;;;;5120069;28;20245;-40
2024/01/11 01:48:57;;;;;;;52.27;31.37;;;-4.20;1.00;;;;;;5119945;28;20438;-42
2024/01/11 01:51:24;;;;;;;48.03;31.80;;;-4.20;1.00;;;;;;5117940;28;20198;-41
2024/01/11 01:53:53;;;;;;;50.70;33.97;;;-4.20;1.00;;;;;;5117438;28;20425;-44
2024/01/11 01:56:20;;;;;;;48.77;31.87;;;-4.20;1.00;;;;;;5118895;28;20819;-42
2024/01/11 01:58:45;;;;;;;51.33;32.40;;;-4.20;1.00;;;;;;5119198;28;20465;-43
2024/01/11 02:01:12;;;;;;;50.40;33.50;;;-4.20;1.00;;;;;;5119538;28;20472;-43
2024/01/11 02:03:37;;;;;;;48.27;34.40;;;-4.20;1.00;;;;;;5118500;28;20194;-41
2024/01/11 02:06:04;;;;;;;51.03;32.80;;;-4.20;1.00;;;;;;5119822;28;20410;-41
2024/01/11 02:08:30;;;;;;;54.60;34.23;;;-4.20;1.00;;;;;;5119877;28;20236;-40
2024/01/11 02:10:56;;;;;;;48.60;33.17;;;-4.20;1.00;;;;;;5118569;28;20922;-42
2024/01/11 02:13:22;;;;;;;49.07;33.70;;;-4.20;1.00;;;;;;5119259;28;20263;-41
2024/01/11 02:15:47;;;;;;;42.90;31.23;;;-4.30;1.00;;;;;;5119305;28;20524;-45
2024/01/11 02:18:13;;;;;;;51.27;31.30;;;-4.30;2.50;;;;;;5119704;28;20263;-41
2024/01/11 02:20:38;;;;;;;56.27;35.50;;;-4.30;1.00;;;;;;5118550;28;20619;-41
2024/01/11 02:23:07;;;;;;;50.73;32.83;;;-4.30;12.70;;;;;;5118151;28;20237;-42
2024/01/11 02:25:33;;;;;;;53.23;33.63;;;-4.30;91.00;;;;;;5119687;28;20416;-42
2024/01/11 02:27:58;;;;;;;49.73;32.67;;;-4.30;99.90;;;;;;5119788;28;20425;-44
2024/01/11 02:30:24;;;;;;;49.87;34.47;;;-4.30;99.90;;;;;;5119694;28;20180;-42
2024/01/11 02:32:50;;;;;;;53.73;33.97;;;-4.30;1.00;;;;;;5118772;28;20175;-41
2024/01/11 02:35:16;;;;;;;53.73;33.03;;;-4.30;58.20;;;;;;5118833;28;20234;-42
2024/01/11 02:37:42;;;;;;;45.10;31.97;;;-4.40;52.90;;;;;;5118869;28;20426;-41
2024/01/11 02:40:08;;;;;;;48.53;32.53;;;-4.40;71.70;;;;;;5117954;28;20481;-41
2024/01/11 02:42:35;;;;;;;54.37;33.97;;;-4.40;95.80;;;;;;5118698;27;20274;-43
2024/01/11 02:45:00;;;;;;;47.20;30.57;;;-4.40;44.70;;;;;;5118970;28;20417;-43
2024/01/11 02:47:26;;;;;;;46.00;33.67;;;-4.40;1.00;;;;;;5118886;28;20397;-42
2024/01/11 02:49:51;;;;;;;49.13;32.77;;;-4.40;1.00;;;;;;5118818;28;20429;-42
2024/01/11 02:52:17;;;;;;;53.27;34.30;;;-4.40;16.20;;;;;;5118281;28;20500;-41
2024/01/11 02:54:42;;;;;;;53.43;34.27;;;-4.50;99.90;;;;;;5118321;28;20180;-42
2024/01/11 02:57:08;;;;;;;49.23;31.60;;;-4.40;48.50;;;;;;5118470;28;20215;-41
2024/01/11 02:59:33;;;;;;;53.27;33.70;;;-4.50;23.30;;;;;;5118784;28;20504;-46
2024/01/11 03:01:59;;;;;;;50.03;33.63;;;-4.50;1.00;;;;;;5118416;28;20203;-40
2024/01/11 03:04:25;;;;;;;49.97;31.30;;;-4.50;19.40;;;;;;5117228;28;20209;-41
2024/01/11 03:06:50;;;;;;;45.37;32.37;;;-4.50;1.00;;;;;;5117379;28;20187;-43
2024/01/11 03:09:16;;;;;;;54.87;32.33;;;-4.60;1.00;;;;;;5117932;28;20198;-41
2024/01/11 03:11:41;;;;;;;50.83;33.83;;;-4.60;1.00;;;;;;5118065;28;20199;-42
2024/01/11 03:14:07;;;;;;;51.63;33.30;;;-4.60;1.00;;;;;;5117863;28;20208;-41
2024/01/11 03:16:32;;;;;;;50.53;32.60;;;-4.60;1.00;;;;;;5117843;28;20451;-41
2024/01/11 03:18:58;;;;;;;46.27;32.00;;;-4.60;1.00;;;;;;5118440;28;20277;-41
2024/01/11 03:21:23;;;;;;;49.37;32.43;;;-4.60;1.00;;;;;;5118306;28;20234;-40
2024/01/11 03:23:49;;;;;;;46.10;31.83;;;-4.60;1.00;;;;;;5118146;28;20251;-43
2024/01/11 03:26:17;;;;;;;45.53;31.13;;;-4.60;1.00;;;;;;5117767;28;20574;-41
2024/01/11 03:28:43;;;;;;;54.03;32.70;;;-4.60;1.00;;;;;;5118290;28;20172;-42
2024/01/11 03:31:10;;;;;;;50.07;32.53;;;-4.60;1.00;;;;;;5118013;28;20436;-40
2024/01/11 03:33:35;;;;;;;46.67;30.53;;;-4.60;1.00;;;;;;5116828;28;20436;-43
2024/01/11 03:36:09;;;;;;;49.87;30.80;;;-4.60;1.00;;;;;;5116951;28;20406;-41
2024/01/11 03:38:35;;;;;;;49.93;31.87;;;-4.60;1.00;;;;;;5117946;28;20546;-43
2024/01/11 03:41:01;;;;;;;50.10;31.80;;;-4.60;1.00;;;;;;5116395;28;20480;-44
2024/01/11 03:43:27;;;;;;;47.77;31.20;;;-4.70;6.80;;;;;;5116327;28;20202;-42
2024/01/11 03:45:52;;;;;;;49.67;31.10;;;-4.70;5.60;;;;;;5116990;28;20823;-41
2024/01/11 03:48:18;;;;;;;45.57;31.67;;;-4.70;3.10;;;;;;5117412;28;20250;-41
2024/01/11 03:50:43;;;;;;;52.83;31.40;;;-4.70;1.00;;;;;;5117374;28;20501;-42
2024/01/11 03:53:09;;;;;;;49.23;33.63;;;-4.70;1.00;;;;;;5117499;28;20184;-44
2024/01/11 03:55:34;;;;;;;56.90;33.63;;;-4.70;1.00;;;;;;5117453;28;20275;-41
2024/01/11 03:58:00;;;;;;;49.73;31.17;;;-4.70;1.00;;;;;;5117642;28;20224;-40
2024/01/11 04:00:25;;;;;;;55.47;32.40;;;-4.70;1.00;;;;;;5117346;28;20318;-41
2024/01/11 04:02:51;;;;;;;50.07;32.43;;;-4.70;1.00;;;;;;5117479;28;20172;-46
2024/01/11 04:05:16;;;;;;;48.20;30.90;;;-4.80;1.00;;;;;;5117236;28;20187;-41
2024/01/11 04:07:42;;;;;;;42.40;30.37;;;-4.80;1.00;;;;;;5116891;28;20168;-40
2024/01/11 04:10:11;;;;;;;49.33;30.10;;;-4.80;1.00;;;;;;5117411;28;20172;-40
2024/01/11 04:12:37;;;;;;;45.80;29.50;;;-4.90;1.00;;;;;;5117275;28;20235;-42
2024/01/11 04:15:03;;;;;;;49.33;32.77;;;-4.90;1.00;;;;;;5115833;28;20466;-43
2024/01/11 04:17:28;;;;;;;49.37;31.90;;;-4.90;1.00;;;;;;5115946;28;20425;-44
2024/01/11 04:19:54;;;;;;;51.50;31.67;;;-4.90;1.00;;;;;;5115835;28;20428;-42
2024/01/11 04:22:19;;;;;;;42.60;29.93;;;-4.90;1.00;;;;;;5116719;28;20526;-41
2024/01/11 04:24:45;;;;;;;48.13;31.17;;;-4.90;1.00;;;;;;5116935;28;20171;-42
2024/01/11 04:27:11;;;;;;;45.67;31.17;;;-4.80;1.00;;;;;;5114750;28;20274;-40
2024/01/11 04:29:37;;;;;;;45.50;30.50;;;-4.90;1.00;;;;;;5116316;28;20232;-44
2024/01/11 04:32:03;;;;;;;47.10;30.83;;;-4.90;1.00;;;;;;5116168;28;20425;-42
2024/01/11 04:34:28;;;;;;;42.50;29.60;;;-4.90;1.00;;;;;;5115145;28;20443;-43
2024/01/11 04:36:54;;;;;;;46.70;31.80;;;-4.90;1.00;;;;;;5116393;28;20460;-41
2024/01/11 04:39:20;;;;;;;47.87;29.80;;;-4.90;99.90;;;;;;5114840;28;20175;-40
2024/01/11 04:41:45;;;;;;;46.17;27.63;;;-4.90;99.90;;;;;;5115273;28;20199;-42
2024/01/11 04:44:11;;;;;;;51.63;32.23;;;-4.90;99.90;;;;;;5116438;28;20195;-42
2024/01/11 04:46:36;;;;;;;44.00;27.40;;;-4.90;1.00;;;;;;5116834;28;20199;-41
2024/01/11 04:49:02;;;;;;;43.23;30.13;;;-5.00;1.00;;;;;;5116138;28;20172;-44
2024/01/11 04:51:27;;;;;;;45.83;30.90;;;-5.00;1.00;;;;;;5116203;28;20196;-41
2024/01/11 04:53:53;;;;;;;47.77;30.70;;;-5.00;1.00;;;;;;5116310;28;20172;-41
2024/01/11 04:56:18;;;;;;;48.60;30.20;;;-5.00;1.00;;;;;;5116869;28;20184;-41
2024/01/11 04:58:45;;;;;;;48.90;32.90;;;-5.00;1.00;;;;;;5115817;28;20358;-41
2024/01/11 05:01:14;;;;;;;49.03;30.13;;;-5.00;99.90;;;;;;5115486;28;20240;-40
2024/01/11 05:03:41;;;;;;;48.73;31.90;;;-5.00;1.00;;;;;;5116244;28;20543;-40
2024/01/11 05:06:06;;;;;;;48.00;32.33;;;-5.00;1.00;;;;;;5116128;28;20409;-40
2024/01/11 05:08:32;;;;;;;50.20;31.80;;;-5.10;1.00;;;;;;5115341;28;20841;-42
2024/01/11 05:10:57;;;;;;;48.43;28.93;;;-5.10;1.00;;;;;;5114576;28;20171;-43
2024/01/11 05:13:23;;;;;;;42.13;30.80;;;-5.10;1.00;;;;;;5113069;28;20286;-44
2024/01/11 05:15:49;;;;;;;50.80;30.83;;;-5.10;1.00;;;;;;5113525;28;20195;-41
2024/01/11 05:18:15;;;;;;;45.70;29.37;;;-5.10;1.00;;;;;;5114398;28;20418;-41
2024/01/11 05:20:40;;;;;;;49.47;31.47;;;-5.10;1.00;;;;;;5115097;28;20511;-41
2024/01/11 05:23:06;;;;;;;48.80;31.27;;;-5.10;99.90;;;;;;5115178;28;20458;-43
2024/01/11 05:25:34;;;;;;;50.03;32.03;;;-5.10;99.90;;;;;;5115131;28;20181;-40
2024/01/11 05:28:03;;;;;;;52.20;32.77;;;-5.10;99.90;;;;;;5113050;28;20237;-42
2024/01/11 05:30:30;;;;;;;52.97;33.00;;;-4.80;99.90;;;;;;5113374;28;20707;-41
2024/01/11 05:32:55;;;;;;;46.37;31.77;;;-5.20;99.90;;;;;;5113789;28;20849;-41
2024/01/11 05:35:23;;;;;;;47.07;32.10;;;-5.20;99.90;;;;;;5114302;28;20421;-41
2024/01/11 05:37:49;;;;;;;49.90;30.57;;;-5.20;99.90;;;;;;5113099;28;20584;-42
2024/01/11 05:40:15;;;;;;;49.27;31.03;;;-5.10;99.90;;;;;;5113540;28;20549;-40
2024/01/11 05:42:40;;;;;;;49.00;29.40;;;-5.20;99.90;;;;;;5114204;28;20424;-41
2024/01/11 05:45:06;;;;;;;50.07;32.43;;;-5.20;99.90;;;;;;5114186;28;20387;-42
2024/01/11 05:47:32;;;;;;;47.43;30.23;;;-5.20;99.90;;;;;;5114503;28;20517;-43
2024/01/11 05:49:57;;;;;;;54.80;31.87;;;-5.20;99.90;;;;;;5114028;28;20431;-39
2024/01/11 05:52:23;;;;;;;43.70;30.63;;;-5.20;1.00;;;;;;5114555;28;20179;-39
2024/01/11 05:54:48;;;;;;;49.97;32.67;;;-5.20;1.00;;;;;;5113021;28;20176;-40
2024/01/11 05:57:14;;;;;;;50.07;31.97;;;-5.20;1.00;;;;;;5114544;28;20689;-38
2024/01/11 05:59:46;;;;;;;46.27;30.50;;;-5.20;1.00;;;;;;5112556;28;20472;-42
2024/01/11 06:02:13;;;;;;;42.70;30.33;;;-5.20;1.00;;;;;;5116817;28;20266;-40
2024/01/11 06:04:39;;;;;;;51.33;30.40;;;-5.30;1.00;;;;;;5117460;28;20414;-43
2024/01/11 06:07:04;;;;;;;46.17;29.77;;;-5.40;99.90;;;;;;5116598;28;20427;-39
2024/01/11 06:09:30;;;;;;;49.50;31.57;;;-5.40;1.00;;;;;;5114467;28;20229;-39
2024/01/11 06:11:56;;;;;;;48.07;30.43;;;-5.40;1.00;;;;;;5116595;28;20248;-41
2024/01/11 06:14:21;;;;;;;52.67;33.07;;;-5.40;1.00;;;;;;5117099;28;20708;-41
2024/01/11 06:16:47;;;;;;;46.07;31.03;;;-5.40;23.20;;;;;;5116920;28;20187;-42
2024/01/11 06:19:12;;;;;;;48.77;30.33;;;-5.30;51.60;;;;;;5116031;28;20526;-40
2024/01/11 06:21:38;;;;;;;45.53;30.53;;;-5.30;58.50;;;;;;5115900;28;20211;-40
2024/01/11 06:24:03;;;;;;;49.00;30.07;;;-5.30;1.00;;;;;;5116237;28;20267;-41
2024/01/11 06:26:30;;;;;;;52.87;32.63;;;-5.30;1.00;;;;;;5117328;28;20199;-39
2024/01/11 06:28:55;;;;;;;55.43;33.13;;;-5.30;1.00;;;;;;5116546;28;20273;-41
2024/01/11 06:31:21;;;;;;;57.90;32.73;;;-5.30;1.00;;;;;;5114382;28;20433;-41
2024/01/11 06:33:46;;;;;;;49.70;32.10;;;-5.30;2.40;;;;;;5113839;28;20563;-40
2024/01/11 06:36:12;;;;;;;53.63;34.07;;;-5.30;53.70;;;;;;5118205;28;20191;-39
2024/01/11 06:38:38;;;;;;;52.27;33.60;;;-5.40;16.60;;;;;;5116881;28;20171;-40
2024/01/11 06:41:03;;;;;;;50.07;34.40;;;-5.40;9.10;;;;;;5116284;28;20222;-41
2024/01/11 06:43:29;;;;;;;50.57;32.27;;;-5.40;15.30;;;;;;5114344;28;20176;-40
2024/01/11 06:45:54;;;;;;;54.90;33.40;;;-5.40;86.80;;;;;;5115832;28;20217;-39
2024/01/11 06:48:20;;;;;;;51.50;32.47;;;-5.40;99.90;;;;;;5116441;28;20203;-40
2024/01/11 06:50:45;;;;;;;60.63;34.67;;;-5.40;99.90;;;;;;5115556;28;20210;-42
2024/01/11 06:53:11;;;;;;;54.10;34.97;;;-5.40;99.90;;;;;;5095510;28;20585;-41
2024/01/11 06:55:36;;;;;;;54.77;34.10;;;-5.40;97.80;;;;;;5113678;28;20188;-41
2024/01/11 06:58:03;;;;;;;56.10;33.97;;;-5.40;32.50;;;;;;5114080;28;20419;-40
2024/01/11 07:00:29;;;;;;;51.47;35.17;;;-5.30;56.30;;;;;;5114593;28;20401;-41
2024/01/11 07:02:55;;;;;;;54.70;34.40;;;-5.40;90.60;;;;;;5115649;28;20460;-41
2024/01/11 07:05:20;;;;;;;57.40;33.57;;;-5.40;99.90;;;;;;5116386;28;20294;-39
2024/01/11 07:07:46;;;;;;;56.23;33.63;;;-5.40;99.90;;;;;;5114949;28;20273;-41
2024/01/11 07:10:12;;;;;;;50.50;33.00;;;-5.40;99.90;;;;;;5115613;28;20358;-41
2024/01/11 07:12:38;;;;;;;54.50;34.47;;;-5.40;99.90;;;;;;5116014;28;20429;-41
2024/01/11 07:15:04;;;;;;;56.97;32.87;;;-5.40;99.90;;;;;;5115649;28;20184;-42
2024/01/11 07:17:30;;;;;;;51.87;33.63;;;-5.40;99.90;;;;;;5114416;28;20501;-39
2024/01/11 07:19:56;;;;;;;55.60;36.00;;;-5.40;99.90;;;;;;5113757;28;21006;-40
2024/01/11 07:22:21;;;;;;;55.20;37.37;;;-5.30;80.00;;;;;;5114094;28;20253;-39
2024/01/11 07:24:47;;;;;;;58.77;36.07;;;-5.30;52.00;;;;;;5115896;28;20577;-41
2024/01/11 07:27:12;;;;;;;59.10;37.00;;;-5.30;1.50;;;;;;5116309;28;20176;-44
2024/01/11 07:29:38;;;;;;;46.80;29.30;;;-5.30;99.90;;;;;;5115126;28;20254;-46
2024/01/11 07:32:04;;;;;;;46.33;32.07;;;-4.50;1.00;;;;;;5116886;28;20421;-45
2024/01/11 07:34:31;;;;;;;61.80;36.60;;;-3.30;1.00;;;;;;5113139;28;20490;-43
2024/01/11 07:36:56;;;;;;;62.93;41.73;;;-2.10;1.00;;;;;;5093988;28;20419;-40
2024/01/11 07:39:22;;;;;;;56.07;37.00;;;-1.90;1.00;;;;;;5092625;28;20539;-41
2024/01/11 07:41:48;;;;;;;56.00;38.70;;;-2.20;1.00;;;;;;5094620;28;20204;-41
2024/01/11 07:44:14;;;;;;;54.63;38.63;;;-2.50;1.00;;;;;;5094984;28;20450;-42
2024/01/11 07:46:40;;;;;;;55.10;37.10;;;-2.90;99.90;;;;;;5093891;28;20462;-42
2024/01/11 07:49:06;;;;;;;55.30;37.83;;;-3.10;99.90;;;;;;5093109;28;20180;-44
2024/01/11 07:51:32;;;;;;;53.40;36.47;;;-3.20;44.20;;;;;;5094778;28;20490;-41
2024/01/11 07:53:58;;;;;;;51.43;34.60;;;-3.30;99.90;;;;;;5093899;28;20399;-42
2024/01/11 07:56:24;;;;;;;48.67;34.30;;;-3.30;1.00;;;;;;5094968;28;20848;-45
2024/01/11 07:58:49;;;;;;;46.70;33.80;;;-3.20;99.90;;;;;;5095274;28;20454;-39
2024/01/11 08:01:16;;;;;;;49.73;35.43;;;-3.10;47.00;;;;;;5093471;28;20589;-43
2024/01/11 08:03:41;;;;;;;55.40;34.57;;;-3.00;99.90;;;;;;5094398;28;20719;-42
2024/01/11 08:06:07;;;;;;;59.73;39.40;;;-2.90;1.00;;;;;;5094872;28;20541;-43
2024/01/11 08:08:33;;;;;;;56.83;37.30;;;-2.60;99.90;;;;;;5095149;28;20241;-42
2024/01/11 08:10:59;;;;;;;49.10;35.70;;;-2.50;1.00;;;;;;5093034;28;20436;-46
2024/01/11 08:13:24;;;;;;;48.17;35.83;;;-2.30;1.00;;;;;;5092664;28;20453;-40
2024/01/11 08:15:50;;;;;;;51.53;35.00;;;-2.10;1.00;;;;;;5095873;28;20176;-41
2024/01/11 08:18:18;;;;;;;55.90;36.53;;;-1.80;99.90;;;;;;5095368;28;20574;-43
2024/01/11 08:20:44;;;;;;;50.07;36.10;;;-1.60;99.90;;;;;;5096388;28;20212;-44
2024/01/11 08:23:10;;;;;;;56.40;39.23;;;-1.50;27.50;;;;;;5095005;28;20843;-42
2024/01/11 08:25:35;;;;;;;54.00;37.53;;;-1.30;1.00;;;;;;5094285;28;20334;-42
2024/01/11 08:28:02;;;;;;;62.40;40.97;;;-1.00;1.00;;;;;;5094893;28;20440;-41
2024/01/11 08:30:28;;;;;;;55.80;36.30;;;-0.80;99.90;;;;;;5096552;28;20208;-41
2024/01/11 08:32:54;;;;;;;46.60;32.97;;;-0.90;1.00;;;;;;5095632;28;20450;-43
2024/01/11 08:35:20;;;;;;;54.70;35.23;;;-0.80;58.90;;;;;;5095120;28;20176;-41
2024/01/11 08:37:46;;;;;;;53.43;36.37;;;-0.40;1.00;;;;;;5094852;28;20199;-42
2024/01/11 08:40:11;;;;;;;59.30;39.83;;;-0.10;1.00;;;;;;5093926;28;20426;-43
2024/01/11 08:42:37;;;;;;;59.83;39.50;;;0.30;1.00;;;;;;5096441;28;20188;-42
2024/01/11 08:45:07;;;;;;;45.60;33.40;;;0.60;99.90;;;;;;5079166;28;20172;-44
2024/01/11 08:47:33;;;;;;;52.17;38.77;;;1.00;99.90;;;;;;5096659;28;20413;-41
2024/01/11 08:49:59;;;;;;;52.60;36.23;;;1.10;99.90;;;;;;5096502;28;20434;-41
2024/01/11 08:52:25;;;;;;;47.93;34.20;;;1.30;99.90;;;;;;5095705;28;20820;-42
2024/01/11 08:54:50;;;;;;;52.20;36.87;;;1.70;95.70;;;;;;5096806;28;20184;-41
2024/01/11 08:57:17;;;;;;;50.30;35.53;;;2.00;18.20;;;;;;5079035;28;20546;-41
2024/01/11 08:59:42;;;;;;;48.80;35.20;;;2.40;1.00;;;;;;5092960;28;20493;-41
2024/01/11 09:02:08;;;;;;;52.87;36.60;;;2.50;1.00;;;;;;5093972;28;20543;-41
2024/01/11 09:04:34;;;;;;;49.43;35.80;;;2.60;1.00;;;;;;5094908;28;20185;-43
2024/01/11 09:07:00;;;;;;;57.17;35.40;;;2.90;1.00;;;;;;5096751;28;20513;-41
2024/01/11 09:09:25;;;;;;;47.50;34.50;;;3.30;1.00;;;;;;5096926;28;20434;-46
2024/01/11 09:11:51;;;;;;;43.07;34.10;;;3.70;1.00;;;;;;5079360;28;20168;-40
2024/01/11 09:14:17;;;;;;;50.33;35.57;;;3.80;1.00;;;;;;5079314;28;20303;-41
2024/01/11 09:16:44;;;;;;;50.00;36.10;;;4.00;1.00;;;;;;5096061;28;20433;-44
2024/01/11 09:19:11;;;;;;;49.20;36.00;;;4.20;1.00;;;;;;5095314;28;20574;-42
2024/01/11 09:21:37;;;;;;;49.67;38.30;;;4.10;1.00;;;;;;5097191;28;20794;-41
2024/01/11 09:24:03;;;;;;;49.20;36.43;;;4.10;1.00;;;;;;5077014;28;20491;-42
2024/01/11 09:26:29;;;;;;;49.23;35.07;;;4.40;1.00;;;;;;5094269;28;20168;-44
2024/01/11 09:28:54;;;;;;;48.17;36.37;;;4.70;1.00;;;;;;5094865;28;20865;-42
2024/01/11 09:31:20;;;;;;;47.30;35.80;;;4.90;1.00;;;;;;5094693;28;20184;-44
2024/01/11 09:33:46;;;;;;;42.07;31.83;;;5.40;1.00;;;;;;5099074;28;20180;-43
2024/01/11 09:36:15;;;;;;;46.40;35.20;;;6.00;1.00;;;;;;5100279;28;20497;-45
2024/01/11 09:38:41;;;;;;;45.13;36.10;;;6.90;1.00;;;;;;5099534;28;20177;-43
2024/01/11 09:41:09;;;;;;;44.80;35.80;;;7.60;1.00;;;;;;5100210;28;20557;-43
2024/01/11 09:43:35;;;;;;;39.47;30.07;;;8.30;1.00;;;;;;5097939;28;20172;-42
2024/01/11 09:46:05;;;;;;;47.90;35.50;;;9.20;1.00;;;;;;5098972;28;20419;-42
2024/01/11 09:48:35;;;;;;;44.87;37.00;;;10.20;1.00;;;;;;5098301;28;20438;-43
2024/01/11 09:51:03;;;;;;;44.67;35.77;;;11.10;1.00;;;;;;5099838;28;20682;-43
2024/01/11 09:53:32;;;;;;;42.90;36.80;;;11.70;1.00;;;;;;5096382;28;20414;-41
2024/01/11 09:55:59;;;;;;;41.37;36.87;;;11.90;1.00;;;;;;5097276;28;20454;-41
2024/01/11 09:58:25;;;;;;;44.17;36.20;;;12.60;1.00;;;;;;5097285;28;20426;-41
2024/01/11 10:00:54;;;;;;;42.80;38.40;;;13.20;1.00;;;;;;5098191;28;20518;-41
2024/01/11 10:03:21;;;;;;;45.20;37.83;;;13.70;1.00;;;;;;5098908;28;20466;-41
2024/01/11 10:05:50;;;;;;;41.77;36.97;;;14.00;1.00;;;;;;5082576;28;20504;-43
2024/01/11 10:08:18;;;;;;;41.93;37.30;;;13.70;1.00;;;;;;5097294;28;20426;-40
2024/01/11 10:10:43;;;;;;;39.73;35.53;;;13.80;1.00;;;;;;5097836;28;20453;-42
2024/01/11 10:13:09;;;;;;;44.50;37.33;;;13.90;1.00;;;;;;5097632;28;20426;-42
2024/01/11 10:15:34;;;;;;;36.97;33.17;;;14.40;1.00;;;;;;5098192;28;20176;-43
2024/01/11 10:18:00;;;;;;;39.10;34.87;;;14.60;1.00;;;;;;5099681;28;20168;-42
2024/01/11 10:20:27;;;;;;;39.10;35.00;;;15.00;1.00;;;;;;5081775;28;20196;-42
2024/01/11 10:22:52;;;;;;;41.00;36.60;;;15.20;1.00;;;;;;5099984;28;20169;-42
2024/01/11 10:25:18;;;;;;;40.87;36.23;;;15.30;1.00;;;;;;5096506;28;20430;-41
2024/01/11 10:27:45;;;;;;;43.33;38.83;;;15.90;1.00;;;;;;5095273;28;20198;-44
2024/01/11 10:30:19;;;;;;;39.27;35.20;;;15.90;1.00;;;;;;5098803;28;20481;-43
2024/01/11 10:32:45;;;;;;;39.10;34.10;;;16.20;1.00;;;;;;5096923;28;20492;-46
2024/01/11 10:35:11;;;;;;;42.50;37.93;;;16.50;1.00;;;;;;5093549;28;20438;-42
2024/01/11 10:37:40;;;;;;;40.03;35.73;;;16.60;1.00;;;;;;5078840;28;20710;-44
2024/01/11 10:40:10;;;;;;;40.47;36.27;;;16.50;1.00;;;;;;5095260;28;20168;-41
2024/01/11 10:42:39;;;;;;;38.40;34.40;;;16.60;1.00;;;;;;5097228;28;20445;-43
2024/01/11 10:45:19;;;;;;;42.17;37.60;;;16.40;1.00;;;;;;5096786;28;20415;-41
2024/01/11 10:47:48;;;;;;;32.83;28.10;;;16.30;1.00;;;;;;5097133;28;20407;-42
2024/01/11 10:50:15;;;;;;;36.77;33.07;;;16.60;1.00;;;;;;5096581;28;20437;-42
2024/01/11 10:52:45;;;;;;;35.27;31.50;;;17.10;1.00;;;;;;5097287;28;20426;-44
2024/01/11 10:55:11;;;;;;;38.47;34.50;;;17.50;1.00;;;;;;5098208;28;20832;-43
2024/01/11 10:57:37;;;;;;;39.83;35.83;;;17.90;1.00;;;;;;5096447;28;20427;-43
2024/01/11 11:00:03;;;;;;;40.23;36.23;;;18.00;1.00;;;;;;5096697;28;20164;-41
2024/01/11 11:02:29;;;;;;;42.00;37.67;;;18.00;1.00;;;;;;5095476;28;20660;-44
2024/01/11 11:04:55;;;;;;;39.33;35.20;;;17.60;1.00;;;;;;5098156;28;20430;-44
2024/01/11 11:07:21;;;;;;;39.30;35.40;;;16.60;1.00;;;;;;5097456;28;20764;-42
2024/01/11 11:09:49;;;;;;;40.10;36.50;;;17.20;1.00;;;;;;5079001;28;20439;-43
2024/01/11 11:12:16;;;;;;;42.83;38.60;;;17.20;1.00;;;;;;5096138;28;21024;-42
2024/01/11 11:14:44;;;;;;;39.83;35.77;;;17.40;1.00;;;;;;5097278;28;20415;-44
2024/01/11 11:17:09;;;;;;;39.80;35.80;;;17.60;1.00;;;;;;5095810;28;20885;-42
2024/01/11 11:19:36;;;;;;;36.93;33.33;;;18.00;1.00;;;;;;5096257;28;20430;-46
2024/01/11 11:22:04;;;;;;;40.13;36.30;;;18.10;1.00;;;;;;5096866;28;20211;-41
2024/01/11 11:24:30;;;;;;;38.50;34.83;;;18.50;1.00;;;;;;5094643;28;20504;-41
2024/01/11 11:26:57;;;;;;;36.73;33.07;;;19.00;1.00;;;;;;5095786;28;20403;-42
2024/01/11 11:29:22;;;;;;;41.67;37.57;;;19.50;1.00;;;;;;5093781;28;20184;-42
2024/01/11 11:31:53;;;;;;;36.93;33.43;;;19.40;1.00;;;;;;5095155;28;20761;-41
2024/01/11 11:34:20;;;;;;;37.43;33.93;;;19.10;1.00;;;;;;5093664;28;20440;-43
2024/01/11 11:36:54;;;;;;;39.03;35.07;;;19.20;1.00;;;;;;5093670;28;20753;-43
2024/01/11 11:39:20;;;;;;;36.23;32.73;;;19.40;1.00;;;;;;5097067;28;20430;-42
2024/01/11 11:41:46;;;;;;;37.73;34.10;;;19.60;1.00;;;;;;5096449;28;20823;-42
2024/01/11 11:44:14;;;;;;;38.73;34.93;;;19.80;1.00;;;;;;5095571;28;20214;-46
2024/01/11 11:46:40;;;;;;;36.00;32.70;;;20.00;1.00;;;;;;5094279;28;20542;-43
2024/01/11 11:49:06;;;;;;;36.00;32.60;;;20.40;1.00;;;;;;5095758;28;20502;-45
2024/01/11 11:51:33;;;;;;;37.80;33.90;;;20.70;1.00;;;;;;5096826;28;20200;-45
2024/01/11 11:53:58;;;;;;;35.03;31.77;;;21.30;1.00;;;;;;5095342;28;20843;-44
2024/01/11 11:56:24;;;;;;;37.07;33.57;;;21.60;1.00;;;;;;5078078;28;20418;-40
2024/01/11 11:58:52;;;;;;;34.43;31.23;;;21.40;1.00;;;;;;5096219;28;20574;-46
2024/01/11 12:01:18;;;;;;;36.80;33.17;;;21.90;1.00;;;;;;5095961;28;20254;-42
2024/01/11 12:03:48;;;;;;;35.93;32.70;;;21.60;1.00;;;;;;5095179;28;20474;-41
2024/01/11 12:06:15;;;;;;;38.40;34.57;;;22.00;1.00;;;;;;5093617;28;20216;-42
2024/01/11 12:08:45;;;;;;;37.90;34.40;;;22.00;1.00;;;;;;5094608;28;20398;-41
2024/01/11 12:11:14;;;;;;;37.87;33.97;;;21.80;1.00;;;;;;5078011;28;20442;-42
2024/01/11 12:13:41;;;;;;;36.67;33.30;;;22.30;1.00;;;;;;5095315;28;20422;-43
2024/01/11 12:16:07;;;;;;;37.03;33.53;;;22.20;1.00;;;;;;5093786;28;20430;-42
2024/01/11 12:18:32;;;;;;;36.83;33.40;;;22.40;1.00;;;;;;5094771;28;20436;-42
2024/01/11 12:20:58;;;;;;;37.50;33.90;;;22.20;1.00;;;;;;5093043;28;20443;-42
2024/01/11 12:23:24;;;;;;;37.33;34.13;;;21.30;1.00;;;;;;5091840;28;20187;-43
2024/01/11 12:25:49;;;;;;;38.20;34.63;;;20.80;1.00;;;;;;5093393;28;20181;-41
2024/01/11 12:28:15;;;;;;;36.53;33.13;;;20.50;1.00;;;;;;5089288;28;20601;-42